sensor_id;sensor_type;location;lat;lon;timestamp;P1;durP1;ratioP1;P2;durP2;ratioP2
57111;SDS011;42992;49.084;19.300;2023-02-03T00:01:32;4.35;;;1.70;;
57111;SDS011;42992;49.084;19.300;2023-02-03T00:04:04;6.65;;;2.50;;
57111;SDS011;42992;49.084;19.300;2023-02-03T00:06:30;5.63;;;2.20;;
57111;SDS011;42992;49.084;19.300;2023-02-03T00:08:57;4.15;;;1.85;;
57111;SDS011;42992;49.084;19.300;2023-02-03T00:11:23;5.50;;;2.10;;
57111;SDS011;42992;49.084;19.300;2023-02-03T00:13:49;4.28;;;1.95;;
57111;SDS011;42992;49.084;19.300;2023-02-03T00:16:14;4.47;;;1.92;;
57111;SDS011;42992;49.084;19.300;2023-02-03T00:18:42;5.20;;;2.10;;
57111;SDS011;42992;49.084;19.300;2023-02-03T00:21:07;5.57;;;2.40;;
57111;SDS011;42992;49.084;19.300;2023-02-03T00:23:33;5.13;;;2.13;;
57111;SDS011;42992;49.084;19.300;2023-02-03T00:26:05;5.45;;;2.40;;
57111;SDS011;42992;49.084;19.300;2023-02-03T00:28:31;4.55;;;1.85;;
57111;SDS011;42992;49.084;19.300;2023-02-03T00:30:56;4.63;;;1.90;;
57111;SDS011;42992;49.084;19.300;2023-02-03T00:33:22;5.38;;;2.50;;
57111;SDS011;42992;49.084;19.300;2023-02-03T00:35:47;4.65;;;1.73;;
57111;SDS011;42992;49.084;19.300;2023-02-03T00:38:16;4.13;;;1.80;;
57111;SDS011;42992;49.084;19.300;2023-02-03T00:40:42;3.58;;;1.73;;
57111;SDS011;42992;49.084;19.300;2023-02-03T00:43:07;5.93;;;2.20;;
57111;SDS011;42992;49.084;19.300;2023-02-03T00:45:32;5.45;;;2.40;;
57111;SDS011;42992;49.084;19.300;2023-02-03T00:47:57;6.97;;;1.90;;
57111;SDS011;42992;49.084;19.300;2023-02-03T00:50:23;6.10;;;2.20;;
57111;SDS011;42992;49.084;19.300;2023-02-03T00:52:48;4.57;;;2.20;;
57111;SDS011;42992;49.084;19.300;2023-02-03T00:55:13;4.82;;;1.70;;
57111;SDS011;42992;49.084;19.300;2023-02-03T00:57:39;3.85;;;1.45;;
57111;SDS011;42992;49.084;19.300;2023-02-03T01:00:04;3.38;;;1.50;;
57111;SDS011;42992;49.084;19.300;2023-02-03T01:02:29;3.90;;;1.55;;
57111;SDS011;42992;49.084;19.300;2023-02-03T01:04:55;3.67;;;1.60;;
57111;SDS011;42992;49.084;19.300;2023-02-03T01:07:20;3.03;;;1.40;;
57111;SDS011;42992;49.084;19.300;2023-02-03T01:09:47;4.55;;;1.70;;
57111;SDS011;42992;49.084;19.300;2023-02-03T01:12:12;4.78;;;2.00;;
57111;SDS011;42992;49.084;19.300;2023-02-03T01:14:37;6.35;;;2.25;;
57111;SDS011;42992;49.084;19.300;2023-02-03T01:17:02;7.00;;;2.55;;
57111;SDS011;42992;49.084;19.300;2023-02-03T01:19:28;5.45;;;1.63;;
57111;SDS011;42992;49.084;19.300;2023-02-03T01:21:53;7.50;;;2.25;;
57111;SDS011;42992;49.084;19.300;2023-02-03T01:24:18;5.88;;;1.77;;
57111;SDS011;42992;49.084;19.300;2023-02-03T01:26:44;3.72;;;1.65;;
57111;SDS011;42992;49.084;19.300;2023-02-03T01:29:09;4.03;;;1.88;;
57111;SDS011;42992;49.084;19.300;2023-02-03T01:31:35;4.85;;;1.90;;
57111;SDS011;42992;49.084;19.300;2023-02-03T01:34:03;5.07;;;2.13;;
57111;SDS011;42992;49.084;19.300;2023-02-03T01:36:30;4.85;;;2.13;;
57111;SDS011;42992;49.084;19.300;2023-02-03T01:38:55;6.18;;;2.53;;
57111;SDS011;42992;49.084;19.300;2023-02-03T01:41:22;8.63;;;2.60;;
57111;SDS011;42992;49.084;19.300;2023-02-03T01:43:48;5.18;;;2.00;;
57111;SDS011;42992;49.084;19.300;2023-02-03T01:51:52;6.05;;;2.55;;
57111;SDS011;42992;49.084;19.300;2023-02-03T01:54:22;4.75;;;2.42;;
57111;SDS011;42992;49.084;19.300;2023-02-03T01:56:52;4.55;;;1.90;;
57111;SDS011;42992;49.084;19.300;2023-02-03T01:59:18;4.22;;;1.90;;
57111;SDS011;42992;49.084;19.300;2023-02-03T02:01:44;5.57;;;2.80;;
57111;SDS011;42992;49.084;19.300;2023-02-03T02:04:09;4.15;;;2.10;;
57111;SDS011;42992;49.084;19.300;2023-02-03T02:06:36;4.68;;;2.10;;
57111;SDS011;42992;49.084;19.300;2023-02-03T02:09:02;5.75;;;2.22;;
57111;SDS011;42992;49.084;19.300;2023-02-03T02:11:30;4.82;;;2.10;;
57111;SDS011;42992;49.084;19.300;2023-02-03T02:13:57;4.57;;;2.28;;
57111;SDS011;42992;49.084;19.300;2023-02-03T02:26:48;5.40;;;2.20;;
57111;SDS011;42992;49.084;19.300;2023-02-03T02:31:51;5.03;;;2.20;;
57111;SDS011;42992;49.084;19.300;2023-02-03T02:34:27;5.18;;;2.45;;
57111;SDS011;42992;49.084;19.300;2023-02-03T02:42:13;6.45;;;2.38;;
57111;SDS011;42992;49.084;19.300;2023-02-03T02:44:46;7.60;;;2.80;;
57111;SDS011;42992;49.084;19.300;2023-02-03T02:47:17;4.93;;;2.30;;
57111;SDS011;42992;49.084;19.300;2023-02-03T02:52:31;5.75;;;2.50;;
57111;SDS011;42992;49.084;19.300;2023-02-03T02:55:00;5.03;;;2.33;;
57111;SDS011;42992;49.084;19.300;2023-02-03T02:57:27;5.07;;;2.22;;
57111;SDS011;42992;49.084;19.300;2023-02-03T02:59:53;5.28;;;2.30;;
57111;SDS011;42992;49.084;19.300;2023-02-03T03:02:19;4.93;;;2.58;;
57111;SDS011;42992;49.084;19.300;2023-02-03T03:04:45;4.93;;;2.10;;
57111;SDS011;42992;49.084;19.300;2023-02-03T03:07:13;4.50;;;1.90;;
57111;SDS011;42992;49.084;19.300;2023-02-03T03:09:42;4.57;;;1.85;;
57111;SDS011;42992;49.084;19.300;2023-02-03T03:12:16;5.40;;;1.98;;
57111;SDS011;42992;49.084;19.300;2023-02-03T03:14:44;4.75;;;1.80;;
57111;SDS011;42992;49.084;19.300;2023-02-03T03:17:12;5.28;;;2.38;;
57111;SDS011;42992;49.084;19.300;2023-02-03T03:19:41;5.10;;;2.20;;
57111;SDS011;42992;49.084;19.300;2023-02-03T03:22:08;5.50;;;2.63;;
57111;SDS011;42992;49.084;19.300;2023-02-03T03:24:45;5.13;;;2.80;;
57111;SDS011;42992;49.084;19.300;2023-02-03T03:27:13;5.28;;;2.40;;
57111;SDS011;42992;49.084;19.300;2023-02-03T03:29:41;5.72;;;2.10;;
57111;SDS011;42992;49.084;19.300;2023-02-03T03:32:07;5.88;;;2.35;;
57111;SDS011;42992;49.084;19.300;2023-02-03T03:34:32;6.55;;;2.20;;
57111;SDS011;42992;49.084;19.300;2023-02-03T03:37:06;5.18;;;2.33;;
57111;SDS011;42992;49.084;19.300;2023-02-03T03:39:44;6.40;;;2.33;;
57111;SDS011;42992;49.084;19.300;2023-02-03T03:47:28;6.53;;;2.70;;
57111;SDS011;42992;49.084;19.300;2023-02-03T03:49:54;5.43;;;2.60;;
57111;SDS011;42992;49.084;19.300;2023-02-03T03:52:23;5.60;;;2.50;;
57111;SDS011;42992;49.084;19.300;2023-02-03T03:54:50;4.95;;;2.50;;
57111;SDS011;42992;49.084;19.300;2023-02-03T03:57:18;6.15;;;2.67;;
57111;SDS011;42992;49.084;19.300;2023-02-03T03:59:48;4.82;;;2.30;;
57111;SDS011;42992;49.084;19.300;2023-02-03T04:02:16;5.28;;;2.30;;
57111;SDS011;42992;49.084;19.300;2023-02-03T04:04:42;4.50;;;2.63;;
57111;SDS011;42992;49.084;19.300;2023-02-03T04:07:08;8.43;;;4.10;;
57111;SDS011;42992;49.084;19.300;2023-02-03T04:09:33;11.80;;;5.10;;
57111;SDS011;42992;49.084;19.300;2023-02-03T04:12:01;16.17;;;7.22;;
57111;SDS011;42992;49.084;19.300;2023-02-03T04:14:27;16.00;;;7.07;;
57111;SDS011;42992;49.084;19.300;2023-02-03T04:16:54;9.00;;;4.18;;
57111;SDS011;42992;49.084;19.300;2023-02-03T04:19:19;7.13;;;3.70;;
57111;SDS011;42992;49.084;19.300;2023-02-03T04:21:44;7.18;;;3.40;;
57111;SDS011;42992;49.084;19.300;2023-02-03T04:24:10;6.95;;;3.47;;
57111;SDS011;42992;49.084;19.300;2023-02-03T04:26:36;8.48;;;3.20;;
57111;SDS011;42992;49.084;19.300;2023-02-03T04:29:03;7.22;;;2.97;;
57111;SDS011;42992;49.084;19.300;2023-02-03T04:31:28;5.65;;;2.83;;
57111;SDS011;42992;49.084;19.300;2023-02-03T04:33:53;8.20;;;3.70;;
57111;SDS011;42992;49.084;19.300;2023-02-03T04:36:19;7.07;;;3.05;;
57111;SDS011;42992;49.084;19.300;2023-02-03T04:38:44;5.47;;;3.03;;
57111;SDS011;42992;49.084;19.300;2023-02-03T04:41:09;8.93;;;3.78;;
57111;SDS011;42992;49.084;19.300;2023-02-03T04:43:35;8.45;;;3.72;;
57111;SDS011;42992;49.084;19.300;2023-02-03T04:46:00;6.82;;;3.30;;
57111;SDS011;42992;49.084;19.300;2023-02-03T04:48:26;9.07;;;3.38;;
57111;SDS011;42992;49.084;19.300;2023-02-03T04:50:52;8.57;;;3.33;;
57111;SDS011;42992;49.084;19.300;2023-02-03T04:53:17;7.47;;;3.13;;
57111;SDS011;42992;49.084;19.300;2023-02-03T04:55:49;7.97;;;3.53;;
57111;SDS011;42992;49.084;19.300;2023-02-03T04:58:14;6.07;;;2.92;;
57111;SDS011;42992;49.084;19.300;2023-02-03T05:00:51;7.80;;;3.30;;
57111;SDS011;42992;49.084;19.300;2023-02-03T05:03:24;11.15;;;3.80;;
57111;SDS011;42992;49.084;19.300;2023-02-03T05:05:50;7.88;;;4.22;;
57111;SDS011;42992;49.084;19.300;2023-02-03T05:08:18;6.53;;;3.35;;
57111;SDS011;42992;49.084;19.300;2023-02-03T05:10:43;7.22;;;3.75;;
57111;SDS011;42992;49.084;19.300;2023-02-03T05:13:10;10.48;;;3.53;;
57111;SDS011;42992;49.084;19.300;2023-02-03T05:15:36;7.80;;;4.13;;
57111;SDS011;42992;49.084;19.300;2023-02-03T05:18:03;7.00;;;4.20;;
57111;SDS011;42992;49.084;19.300;2023-02-03T05:20:31;8.00;;;4.47;;
57111;SDS011;42992;49.084;19.300;2023-02-03T05:22:56;11.13;;;5.22;;
57111;SDS011;42992;49.084;19.300;2023-02-03T05:25:22;9.38;;;4.88;;
57111;SDS011;42992;49.084;19.300;2023-02-03T05:27:47;8.98;;;4.35;;
57111;SDS011;42992;49.084;19.300;2023-02-03T05:30:12;7.05;;;3.28;;
57111;SDS011;42992;49.084;19.300;2023-02-03T05:32:37;6.30;;;2.75;;
57111;SDS011;42992;49.084;19.300;2023-02-03T05:35:03;5.57;;;2.75;;
57111;SDS011;42992;49.084;19.300;2023-02-03T05:37:28;7.25;;;3.25;;
57111;SDS011;42992;49.084;19.300;2023-02-03T05:39:53;8.20;;;4.30;;
57111;SDS011;42992;49.084;19.300;2023-02-03T05:42:39;15.23;;;7.38;;
57111;SDS011;42992;49.084;19.300;2023-02-03T05:45:04;13.75;;;7.13;;
57111;SDS011;42992;49.084;19.300;2023-02-03T05:47:29;12.05;;;5.85;;
57111;SDS011;42992;49.084;19.300;2023-02-03T05:49:54;9.63;;;5.50;;
57111;SDS011;42992;49.084;19.300;2023-02-03T05:52:20;12.52;;;6.60;;
57111;SDS011;42992;49.084;19.300;2023-02-03T05:54:45;18.08;;;7.30;;
57111;SDS011;42992;49.084;19.300;2023-02-03T05:57:11;16.27;;;6.15;;
57111;SDS011;42992;49.084;19.300;2023-02-03T05:59:37;26.52;;;9.05;;
57111;SDS011;42992;49.084;19.300;2023-02-03T06:02:02;24.63;;;8.82;;
57111;SDS011;42992;49.084;19.300;2023-02-03T06:04:28;20.55;;;7.78;;
57111;SDS011;42992;49.084;19.300;2023-02-03T06:06:53;16.90;;;6.38;;
57111;SDS011;42992;49.084;19.300;2023-02-03T06:09:18;13.02;;;6.85;;
57111;SDS011;42992;49.084;19.300;2023-02-03T06:11:43;17.27;;;7.10;;
57111;SDS011;42992;49.084;19.300;2023-02-03T06:14:10;12.65;;;6.55;;
57111;SDS011;42992;49.084;19.300;2023-02-03T06:16:35;17.95;;;8.38;;
57111;SDS011;42992;49.084;19.300;2023-02-03T06:19:00;33.45;;;14.60;;
57111;SDS011;42992;49.084;19.300;2023-02-03T06:21:26;32.75;;;13.70;;
57111;SDS011;42992;49.084;19.300;2023-02-03T06:23:52;23.83;;;11.77;;
57111;SDS011;42992;49.084;19.300;2023-02-03T06:26:17;18.75;;;9.73;;
57111;SDS011;42992;49.084;19.300;2023-02-03T06:28:42;18.63;;;8.48;;
57111;SDS011;42992;49.084;19.300;2023-02-03T06:31:07;21.58;;;8.15;;
57111;SDS011;42992;49.084;19.300;2023-02-03T06:33:33;17.92;;;7.82;;
57111;SDS011;42992;49.084;19.300;2023-02-03T06:35:58;18.35;;;8.68;;
57111;SDS011;42992;49.084;19.300;2023-02-03T06:38:24;17.48;;;9.55;;
57111;SDS011;42992;49.084;19.300;2023-02-03T06:40:49;19.95;;;10.07;;
57111;SDS011;42992;49.084;19.300;2023-02-03T06:43:14;27.15;;;11.93;;
57111;SDS011;42992;49.084;19.300;2023-02-03T06:45:40;35.58;;;15.77;;
57111;SDS011;42992;49.084;19.300;2023-02-03T06:48:05;33.53;;;15.68;;
57111;SDS011;42992;49.084;19.300;2023-02-03T06:50:31;34.05;;;15.85;;
57111;SDS011;42992;49.084;19.300;2023-02-03T06:52:56;36.20;;;14.82;;
57111;SDS011;42992;49.084;19.300;2023-02-03T06:55:22;28.45;;;13.65;;
57111;SDS011;42992;49.084;19.300;2023-02-03T06:57:47;29.52;;;11.93;;
57111;SDS011;42992;49.084;19.300;2023-02-03T07:00:13;24.92;;;11.25;;
57111;SDS011;42992;49.084;19.300;2023-02-03T07:02:39;20.88;;;9.23;;
57111;SDS011;42992;49.084;19.300;2023-02-03T07:05:04;24.65;;;10.60;;
57111;SDS011;42992;49.084;19.300;2023-02-03T07:07:29;18.48;;;8.35;;
57111;SDS011;42992;49.084;19.300;2023-02-03T07:09:56;18.83;;;8.45;;
57111;SDS011;42992;49.084;19.300;2023-02-03T07:12:21;14.73;;;7.68;;
57111;SDS011;42992;49.084;19.300;2023-02-03T07:14:46;22.42;;;11.40;;
57111;SDS011;42992;49.084;19.300;2023-02-03T07:17:12;24.13;;;11.65;;
57111;SDS011;42992;49.084;19.300;2023-02-03T07:19:37;19.83;;;10.02;;
57111;SDS011;42992;49.084;19.300;2023-02-03T07:22:02;21.02;;;8.77;;
57111;SDS011;42992;49.084;19.300;2023-02-03T07:24:28;14.15;;;7.10;;
57111;SDS011;42992;49.084;19.300;2023-02-03T07:26:53;12.15;;;6.05;;
57111;SDS011;42992;49.084;19.300;2023-02-03T07:29:18;9.60;;;4.35;;
57111;SDS011;42992;49.084;19.300;2023-02-03T07:31:45;7.63;;;3.65;;
57111;SDS011;42992;49.084;19.300;2023-02-03T07:34:10;7.85;;;3.38;;
57111;SDS011;42992;49.084;19.300;2023-02-03T07:36:36;8.82;;;2.92;;
57111;SDS011;42992;49.084;19.300;2023-02-03T07:39:01;6.15;;;2.80;;
57111;SDS011;42992;49.084;19.300;2023-02-03T07:41:26;6.35;;;2.90;;
57111;SDS011;42992;49.084;19.300;2023-02-03T07:43:51;7.65;;;3.35;;
57111;SDS011;42992;49.084;19.300;2023-02-03T07:46:17;8.15;;;3.42;;
57111;SDS011;42992;49.084;19.300;2023-02-03T07:48:42;7.65;;;3.60;;
57111;SDS011;42992;49.084;19.300;2023-02-03T07:51:07;8.10;;;3.50;;
57111;SDS011;42992;49.084;19.300;2023-02-03T07:53:33;8.18;;;3.80;;
57111;SDS011;42992;49.084;19.300;2023-02-03T07:55:59;8.73;;;4.20;;
57111;SDS011;42992;49.084;19.300;2023-02-03T07:58:24;9.73;;;4.60;;
57111;SDS011;42992;49.084;19.300;2023-02-03T08:00:49;8.25;;;3.75;;
57111;SDS011;42992;49.084;19.300;2023-02-03T08:03:14;9.02;;;3.35;;
57111;SDS011;42992;49.084;19.300;2023-02-03T08:05:40;6.38;;;3.03;;
57111;SDS011;42992;49.084;19.300;2023-02-03T08:08:05;6.05;;;2.75;;
57111;SDS011;42992;49.084;19.300;2023-02-03T08:10:30;6.60;;;3.40;;
57111;SDS011;42992;49.084;19.300;2023-02-03T08:12:56;6.78;;;3.50;;
57111;SDS011;42992;49.084;19.300;2023-02-03T08:15:21;7.47;;;3.40;;
57111;SDS011;42992;49.084;19.300;2023-02-03T08:17:47;8.10;;;3.65;;
57111;SDS011;42992;49.084;19.300;2023-02-03T08:20:13;7.15;;;2.83;;
57111;SDS011;42992;49.084;19.300;2023-02-03T08:22:38;7.75;;;3.42;;
57111;SDS011;42992;49.084;19.300;2023-02-03T08:25:03;10.65;;;3.95;;
57111;SDS011;42992;49.084;19.300;2023-02-03T08:27:29;11.48;;;4.45;;
57111;SDS011;42992;49.084;19.300;2023-02-03T08:29:55;8.45;;;3.88;;
57111;SDS011;42992;49.084;19.300;2023-02-03T08:32:20;8.43;;;3.47;;
57111;SDS011;42992;49.084;19.300;2023-02-03T08:34:46;7.15;;;3.65;;
57111;SDS011;42992;49.084;19.300;2023-02-03T08:37:13;7.57;;;3.08;;
57111;SDS011;42992;49.084;19.300;2023-02-03T08:39:38;7.80;;;3.35;;
57111;SDS011;42992;49.084;19.300;2023-02-03T08:42:04;8.95;;;3.90;;
57111;SDS011;42992;49.084;19.300;2023-02-03T08:44:30;7.15;;;3.30;;
57111;SDS011;42992;49.084;19.300;2023-02-03T08:46:56;7.63;;;3.85;;
57111;SDS011;42992;49.084;19.300;2023-02-03T08:49:22;6.85;;;3.47;;
57111;SDS011;42992;49.084;19.300;2023-02-03T08:51:55;9.38;;;3.75;;
57111;SDS011;42992;49.084;19.300;2023-02-03T08:54:21;10.77;;;4.30;;
57111;SDS011;42992;49.084;19.300;2023-02-03T08:56:46;7.10;;;3.45;;
57111;SDS011;42992;49.084;19.300;2023-02-03T08:59:12;7.95;;;3.60;;
57111;SDS011;42992;49.084;19.300;2023-02-03T09:01:38;8.80;;;3.53;;
57111;SDS011;42992;49.084;19.300;2023-02-03T09:04:05;7.60;;;3.58;;
57111;SDS011;42992;49.084;19.300;2023-02-03T09:06:32;7.45;;;2.83;;
57111;SDS011;42992;49.084;19.300;2023-02-03T09:08:57;6.75;;;3.47;;
57111;SDS011;42992;49.084;19.300;2023-02-03T09:11:22;6.53;;;3.17;;
57111;SDS011;42992;49.084;19.300;2023-02-03T09:13:48;7.70;;;3.03;;
57111;SDS011;42992;49.084;19.300;2023-02-03T09:16:15;7.57;;;3.20;;
57111;SDS011;42992;49.084;19.300;2023-02-03T09:18:41;9.02;;;3.80;;
57111;SDS011;42992;49.084;19.300;2023-02-03T09:21:07;7.82;;;3.80;;
57111;SDS011;42992;49.084;19.300;2023-02-03T09:23:35;8.18;;;4.00;;
57111;SDS011;42992;49.084;19.300;2023-02-03T09:26:02;7.30;;;4.00;;
57111;SDS011;42992;49.084;19.300;2023-02-03T09:28:28;8.23;;;4.03;;
57111;SDS011;42992;49.084;19.300;2023-02-03T09:30:53;7.63;;;3.42;;
57111;SDS011;42992;49.084;19.300;2023-02-03T09:33:18;7.45;;;3.63;;
57111;SDS011;42992;49.084;19.300;2023-02-03T09:35:50;8.82;;;4.25;;
57111;SDS011;42992;49.084;19.300;2023-02-03T09:38:17;7.40;;;4.72;;
57111;SDS011;42992;49.084;19.300;2023-02-03T09:40:42;7.57;;;4.15;;
57111;SDS011;42992;49.084;19.300;2023-02-03T09:43:29;7.95;;;4.13;;
57111;SDS011;42992;49.084;19.300;2023-02-03T09:45:53;6.32;;;3.58;;
57111;SDS011;42992;49.084;19.300;2023-02-03T09:48:23;8.02;;;4.35;;
57111;SDS011;42992;49.084;19.300;2023-02-03T09:50:51;9.00;;;4.47;;
57111;SDS011;42992;49.084;19.300;2023-02-03T09:53:22;12.25;;;4.80;;
57111;SDS011;42992;49.084;19.300;2023-02-03T09:55:49;9.65;;;4.03;;
57111;SDS011;42992;49.084;19.300;2023-02-03T09:58:15;7.40;;;4.05;;
57111;SDS011;42992;49.084;19.300;2023-02-03T10:00:43;8.63;;;4.03;;
57111;SDS011;42992;49.084;19.300;2023-02-03T10:03:18;9.38;;;4.30;;
57111;SDS011;42992;49.084;19.300;2023-02-03T10:05:50;11.43;;;5.53;;
57111;SDS011;42992;49.084;19.300;2023-02-03T10:08:25;14.45;;;8.00;;
57111;SDS011;42992;49.084;19.300;2023-02-03T10:18:55;17.30;;;8.65;;
57111;SDS011;42992;49.084;19.300;2023-02-03T10:23:50;12.27;;;5.93;;
57111;SDS011;42992;49.084;19.300;2023-02-03T10:26:19;10.32;;;5.10;;
57111;SDS011;42992;49.084;19.300;2023-02-03T10:28:56;15.10;;;6.25;;
57111;SDS011;42992;49.084;19.300;2023-02-03T10:31:23;10.40;;;5.13;;
57111;SDS011;42992;49.084;19.300;2023-02-03T10:33:55;13.85;;;6.20;;
57111;SDS011;42992;49.084;19.300;2023-02-03T10:36:22;13.73;;;7.07;;
57111;SDS011;42992;49.084;19.300;2023-02-03T10:41:37;19.80;;;10.30;;
57111;SDS011;42992;49.084;19.300;2023-02-03T10:44:03;16.38;;;9.15;;
57111;SDS011;42992;49.084;19.300;2023-02-03T10:46:30;18.65;;;10.90;;
57111;SDS011;42992;49.084;19.300;2023-02-03T10:48:57;18.55;;;9.32;;
57111;SDS011;42992;49.084;19.300;2023-02-03T10:51:23;21.08;;;10.98;;
57111;SDS011;42992;49.084;19.300;2023-02-03T10:53:50;13.85;;;7.70;;
57111;SDS011;42992;49.084;19.300;2023-02-03T10:56:18;16.00;;;8.23;;
57111;SDS011;42992;49.084;19.300;2023-02-03T10:58:51;15.60;;;8.52;;
57111;SDS011;42992;49.084;19.300;2023-02-03T11:01:18;12.90;;;8.05;;
57111;SDS011;42992;49.084;19.300;2023-02-03T11:03:53;16.42;;;8.38;;
57111;SDS011;42992;49.084;19.300;2023-02-03T11:06:18;13.38;;;8.63;;
57111;SDS011;42992;49.084;19.300;2023-02-03T11:08:45;18.23;;;8.20;;
57111;SDS011;42992;49.084;19.300;2023-02-03T11:13:39;16.75;;;8.50;;
57111;SDS011;42992;49.084;19.300;2023-02-03T11:16:11;15.93;;;7.20;;
57111;SDS011;42992;49.084;19.300;2023-02-03T11:21:16;11.10;;;7.07;;
57111;SDS011;42992;49.084;19.300;2023-02-03T11:23:43;12.57;;;6.93;;
57111;SDS011;42992;49.084;19.300;2023-02-03T11:26:11;14.88;;;6.97;;
57111;SDS011;42992;49.084;19.300;2023-02-03T11:28:36;12.77;;;7.60;;
57111;SDS011;42992;49.084;19.300;2023-02-03T11:31:06;12.50;;;7.68;;
57111;SDS011;42992;49.084;19.300;2023-02-03T11:33:39;13.63;;;7.97;;
57111;SDS011;42992;49.084;19.300;2023-02-03T11:36:04;17.60;;;9.27;;
57111;SDS011;42992;49.084;19.300;2023-02-03T11:38:31;22.17;;;11.27;;
57111;SDS011;42992;49.084;19.300;2023-02-03T11:40:57;18.65;;;11.63;;
57111;SDS011;42992;49.084;19.300;2023-02-03T11:43:23;19.25;;;11.68;;
57111;SDS011;42992;49.084;19.300;2023-02-03T11:45:52;18.98;;;10.65;;
57111;SDS011;42992;49.084;19.300;2023-02-03T11:48:25;19.75;;;10.90;;
57111;SDS011;42992;49.084;19.300;2023-02-03T11:53:32;17.83;;;10.10;;
57111;SDS011;42992;49.084;19.300;2023-02-03T11:58:37;14.48;;;7.60;;
57111;SDS011;42992;49.084;19.300;2023-02-03T12:01:19;15.25;;;8.73;;
57111;SDS011;42992;49.084;19.300;2023-02-03T12:04:13;13.60;;;7.25;;
57111;SDS011;42992;49.084;19.300;2023-02-03T12:09:11;14.73;;;8.77;;
57111;SDS011;42992;49.084;19.300;2023-02-03T12:32:58;14.45;;;9.50;;
57111;SDS011;42992;49.084;19.300;2023-02-03T12:35:32;16.30;;;10.45;;
57111;SDS011;42992;49.084;19.300;2023-02-03T12:38:01;18.60;;;10.93;;
57111;SDS011;42992;49.084;19.300;2023-02-03T12:40:45;22.17;;;13.40;;
57111;SDS011;42992;49.084;19.300;2023-02-03T12:45:44;16.13;;;9.32;;
57111;SDS011;42992;49.084;19.300;2023-02-03T12:48:22;21.10;;;11.25;;
57111;SDS011;42992;49.084;19.300;2023-02-03T12:53:38;18.23;;;10.27;;
57111;SDS011;42992;49.084;19.300;2023-02-03T12:56:10;15.65;;;10.50;;
57111;SDS011;42992;49.084;19.300;2023-02-03T13:04:09;19.83;;;10.35;;
57111;SDS011;42992;49.084;19.300;2023-02-03T13:12:38;11.43;;;7.05;;
57111;SDS011;42992;49.084;19.300;2023-02-03T13:17:28;13.82;;;8.05;;
57111;SDS011;42992;49.084;19.300;2023-02-03T13:19:58;12.10;;;8.35;;
57111;SDS011;42992;49.084;19.300;2023-02-03T13:22:24;13.93;;;8.55;;
57111;SDS011;42992;49.084;19.300;2023-02-03T13:24:55;13.70;;;8.45;;
57111;SDS011;42992;49.084;19.300;2023-02-03T13:27:32;13.50;;;8.80;;
57111;SDS011;42992;49.084;19.300;2023-02-03T13:30:10;16.58;;;9.07;;
57111;SDS011;42992;49.084;19.300;2023-02-03T13:35:29;15.98;;;9.70;;
57111;SDS011;42992;49.084;19.300;2023-02-03T13:38:05;16.50;;;9.10;;
57111;SDS011;42992;49.084;19.300;2023-02-03T13:43:11;18.67;;;10.70;;
57111;SDS011;42992;49.084;19.300;2023-02-03T13:48:26;19.23;;;9.82;;
57111;SDS011;42992;49.084;19.300;2023-02-03T13:51:04;16.45;;;9.77;;
57111;SDS011;42992;49.084;19.300;2023-02-03T13:53:32;17.02;;;9.30;;
57111;SDS011;42992;49.084;19.300;2023-02-03T13:56:06;16.42;;;9.45;;
57111;SDS011;42992;49.084;19.300;2023-02-03T13:58:33;14.45;;;8.05;;
57111;SDS011;42992;49.084;19.300;2023-02-03T14:01:06;15.57;;;9.05;;
57111;SDS011;42992;49.084;19.300;2023-02-03T14:03:50;16.63;;;9.75;;
57111;SDS011;42992;49.084;19.300;2023-02-03T14:09:01;20.80;;;11.73;;
57111;SDS011;42992;49.084;19.300;2023-02-03T14:11:50;17.83;;;10.60;;
57111;SDS011;42992;49.084;19.300;2023-02-03T14:16:49;21.00;;;12.15;;
57111;SDS011;42992;49.084;19.300;2023-02-03T14:24:22;17.20;;;11.27;;
57111;SDS011;42992;49.084;19.300;2023-02-03T14:27:19;24.05;;;12.82;;
57111;SDS011;42992;49.084;19.300;2023-02-03T14:29:45;24.05;;;13.10;;
57111;SDS011;42992;49.084;19.300;2023-02-03T14:32:34;22.02;;;12.57;;
57111;SDS011;42992;49.084;19.300;2023-02-03T14:35:19;21.33;;;12.85;;
57111;SDS011;42992;49.084;19.300;2023-02-03T14:37:52;21.70;;;13.15;;
57111;SDS011;42992;49.084;19.300;2023-02-03T15:03:22;27.48;;;16.00;;
57111;SDS011;42992;49.084;19.300;2023-02-03T15:05:50;26.48;;;16.13;;
57111;SDS011;42992;49.084;19.300;2023-02-03T15:10:59;24.80;;;15.50;;
57111;SDS011;42992;49.084;19.300;2023-02-03T15:13:29;26.67;;;16.90;;
57111;SDS011;42992;49.084;19.300;2023-02-03T15:15:59;31.10;;;18.95;;
57111;SDS011;42992;49.084;19.300;2023-02-03T15:20:54;24.23;;;15.30;;
57111;SDS011;42992;49.084;19.300;2023-02-03T15:23:21;23.77;;;15.07;;
57111;SDS011;42992;49.084;19.300;2023-02-03T15:28:41;31.52;;;18.48;;
57111;SDS011;42992;49.084;19.300;2023-02-03T15:34:14;32.17;;;19.60;;
57111;SDS011;42992;49.084;19.300;2023-02-03T15:36:47;26.92;;;16.50;;
57111;SDS011;42992;49.084;19.300;2023-02-03T15:41:59;74.15;;;30.77;;
57111;SDS011;42992;49.084;19.300;2023-02-03T15:47:22;94.13;;;40.88;;
57111;SDS011;42992;49.084;19.300;2023-02-03T15:49:55;30.42;;;17.65;;
57111;SDS011;42992;49.084;19.300;2023-02-03T15:57:43;24.70;;;14.25;;
57111;SDS011;42992;49.084;19.300;2023-02-03T16:00:21;27.73;;;15.52;;
57111;SDS011;42992;49.084;19.300;2023-02-03T16:02:53;24.83;;;14.73;;
57111;SDS011;42992;49.084;19.300;2023-02-03T16:05:26;26.48;;;15.15;;
57111;SDS011;42992;49.084;19.300;2023-02-03T16:07:52;26.13;;;15.80;;
57111;SDS011;42992;49.084;19.300;2023-02-03T16:10:25;29.13;;;15.48;;
57111;SDS011;42992;49.084;19.300;2023-02-03T16:15:42;19.85;;;12.20;;
57111;SDS011;42992;49.084;19.300;2023-02-03T16:18:11;18.38;;;11.00;;
57111;SDS011;42992;49.084;19.300;2023-02-03T16:20:46;20.83;;;12.05;;
57111;SDS011;42992;49.084;19.300;2023-02-03T16:23:21;27.05;;;17.02;;
57111;SDS011;42992;49.084;19.300;2023-02-03T16:26:14;21.38;;;13.35;;
57111;SDS011;42992;49.084;19.300;2023-02-03T16:28:41;30.20;;;17.60;;
57111;SDS011;42992;49.084;19.300;2023-02-03T16:31:25;34.67;;;19.80;;
57111;SDS011;42992;49.084;19.300;2023-02-03T16:34:18;33.90;;;20.40;;
57111;SDS011;42992;49.084;19.300;2023-02-03T16:40:04;42.25;;;22.95;;
57111;SDS011;42992;49.084;19.300;2023-02-03T16:42:48;76.57;;;39.97;;
57111;SDS011;42992;49.084;19.300;2023-02-03T16:45:32;38.53;;;20.75;;
57111;SDS011;42992;49.084;19.300;2023-02-03T16:48:19;32.67;;;18.83;;
57111;SDS011;42992;49.084;19.300;2023-02-03T16:51:04;39.45;;;21.45;;
57111;SDS011;42992;49.084;19.300;2023-02-03T16:53:31;29.83;;;18.80;;
57111;SDS011;42992;49.084;19.300;2023-02-03T16:56:00;30.23;;;18.30;;
57111;SDS011;42992;49.084;19.300;2023-02-03T16:58:43;35.83;;;22.30;;
57111;SDS011;42992;49.084;19.300;2023-02-03T17:01:09;38.17;;;21.58;;
57111;SDS011;42992;49.084;19.300;2023-02-03T17:03:35;41.92;;;23.60;;
57111;SDS011;42992;49.084;19.300;2023-02-03T17:06:06;38.10;;;23.33;;
57111;SDS011;42992;49.084;19.300;2023-02-03T17:08:31;49.72;;;27.33;;
57111;SDS011;42992;49.084;19.300;2023-02-03T17:11:01;37.50;;;21.88;;
57111;SDS011;42992;49.084;19.300;2023-02-03T17:13:26;38.22;;;24.23;;
57111;SDS011;42992;49.084;19.300;2023-02-03T17:15:52;40.88;;;25.73;;
57111;SDS011;42992;49.084;19.300;2023-02-03T17:18:17;40.58;;;25.98;;
57111;SDS011;42992;49.084;19.300;2023-02-03T17:20:43;42.28;;;23.90;;